createdAt,value
2019-03-20T00:00:46.339Z,55.64
2019-03-20T00:03:33.780Z,55.29
2019-03-20T00:06:21.303Z,55.20
2019-03-20T00:09:09.648Z,55.24
2019-03-20T00:11:57.160Z,55.15
2019-03-20T00:14:44.391Z,55.12
2019-03-20T00:17:31.907Z,55.44
2019-03-20T00:20:19.343Z,55.50
2019-03-20T00:23:07.388Z,55.60
2019-03-20T00:25:55.014Z,55.39
2019-03-20T00:28:42.832Z,54.91
2019-03-20T00:31:30.469Z,55.01
2019-03-20T00:34:18.307Z,55.10
2019-03-20T00:37:05.716Z,55.26
2019-03-20T00:39:53.360Z,55.07
2019-03-20T00:42:40.886Z,54.90
2019-03-20T00:45:28.705Z,55.35
2019-03-20T00:48:16.146Z,55.48
2019-03-20T00:51:03.671Z,55.38
2019-03-20T00:53:51.082Z,55.72
2019-03-20T00:56:39.245Z,56.52
2019-03-20T00:59:26.661Z,56.49
2019-03-20T01:02:14.175Z,56.44
2019-03-20T01:05:12.274Z,56.24
2019-03-20T01:07:51.279Z,55.95
2019-03-20T01:10:38.611Z,55.55
2019-03-20T01:13:26.327Z,55.58
2019-03-20T01:16:13.856Z,55.74
2019-03-20T01:19:01.490Z,55.79
2019-03-20T01:21:49.424Z,56.26
2019-03-20T01:24:36.855Z,56.58
2019-03-20T01:27:24.383Z,56.11
2019-03-20T01:30:36.586Z,55.95
2019-03-20T01:33:23.792Z,55.53
2019-03-20T01:36:11.353Z,56.42
2019-03-20T01:38:59.066Z,57.70
2019-03-20T01:41:46.382Z,58.63
2019-03-20T01:44:34.116Z,58.03
2019-03-20T01:47:21.847Z,57.20
2019-03-20T01:50:09.371Z,56.41
2019-03-20T01:52:56.804Z,55.71
2019-03-20T01:55:44.646Z,55.58
2019-03-20T01:58:32.671Z,55.46
2019-03-20T02:01:20.302Z,55.56
2019-03-20T02:04:07.506Z,55.73
2019-03-20T02:06:54.520Z,56.57
2019-03-20T02:09:41.852Z,57.42
2019-03-20T02:12:29.376Z,57.24
2019-03-20T02:15:18.191Z,57.00
2019-03-20T02:18:05.876Z,57.65
2019-03-20T02:20:53.603Z,59.19
2019-03-20T02:23:40.920Z,59.22
2019-03-20T02:26:28.536Z,57.77
2019-03-20T02:29:15.973Z,56.83
2019-03-20T02:32:03.737Z,56.79
2019-03-20T02:34:51.532Z,56.81
2019-03-20T02:37:39.465Z,56.95
2019-03-20T02:40:26.719Z,57.00
2019-03-20T02:43:14.217Z,57.13
2019-03-20T02:46:01.450Z,57.22
2019-03-20T02:48:48.865Z,57.17
2019-03-20T02:51:36.391Z,56.47
2019-03-20T02:54:24.120Z,56.90
2019-03-20T02:57:11.752Z,57.69
2019-03-20T02:59:59.678Z,58.03
2019-03-20T03:02:46.808Z,58.17
2019-03-20T03:05:34.628Z,58.06
2019-03-20T03:08:21.851Z,58.04
2019-03-20T03:11:09.080Z,58.56
2019-03-20T03:13:56.396Z,58.70
2019-03-20T03:16:44.034Z,58.45
2019-03-20T03:19:31.757Z,58.18
2019-03-20T03:22:19.117Z,57.92
2019-03-20T03:25:09.374Z,57.70
2019-03-20T03:27:57.001Z,57.49
2019-03-20T03:30:45.037Z,56.82
2019-03-20T03:33:32.773Z,57.01
2019-03-20T03:36:21.800Z,57.20
2019-03-20T03:39:09.462Z,57.28
2019-03-20T03:41:57.087Z,57.42
2019-03-20T03:44:44.534Z,57.58
2019-03-20T03:47:31.936Z,58.59
2019-03-20T03:50:19.601Z,59.15
2019-03-20T03:53:07.409Z,59.01
2019-03-20T03:55:55.030Z,58.86
2019-03-20T03:58:42.770Z,58.55
2019-03-20T04:01:30.073Z,58.04
2019-03-20T04:04:17.603Z,58.16
2019-03-20T04:07:05.312Z,58.35
2019-03-20T04:09:53.066Z,58.29
2019-03-20T04:12:41.008Z,58.62
2019-03-20T04:15:28.794Z,58.71
2019-03-20T04:18:16.559Z,58.54
2019-03-20T04:21:04.218Z,58.44
2019-03-20T04:23:51.434Z,59.58
2019-03-20T04:26:38.736Z,59.19
2019-03-20T04:29:26.489Z,58.67
2019-03-20T04:32:13.889Z,58.37
2019-03-20T04:35:01.618Z,58.35
2019-03-20T04:37:49.345Z,58.61
2019-03-20T04:40:36.871Z,58.82
2019-03-20T04:43:24.092Z,58.52
2019-03-20T04:46:11.530Z,58.03
2019-03-20T04:48:59.358Z,57.84
2019-03-20T04:51:47.097Z,58.32
2019-03-20T04:54:35.141Z,59.36
2019-03-20T04:57:22.967Z,59.70
2019-03-20T05:00:19.096Z,59.58
2019-03-20T05:03:06.914Z,59.50
2019-03-20T05:05:54.646Z,59.94
2019-03-20T05:08:42.393Z,60.73
2019-03-20T05:11:29.822Z,60.40
2019-03-20T05:14:17.230Z,59.82
2019-03-20T05:17:04.964Z,59.06
2019-03-20T05:19:52.378Z,58.53
2019-03-20T05:22:39.803Z,58.09
2019-03-20T05:25:27.434Z,58.02
2019-03-20T05:28:14.755Z,58.07
2019-03-20T05:31:02.283Z,58.18
2019-03-20T05:33:49.604Z,58.20
2019-03-20T05:36:37.024Z,57.99
2019-03-20T05:39:24.352Z,58.02
2019-03-20T05:42:12.287Z,57.77
2019-03-20T05:44:59.503Z,57.92
2019-03-20T05:47:47.340Z,58.16
2019-03-20T05:50:34.965Z,58.77
2019-03-20T05:53:22.594Z,58.88
2019-03-20T05:56:09.933Z,58.62
2019-03-20T05:58:57.542Z,58.46
2019-03-20T06:01:45.173Z,58.41
2019-03-20T06:04:32.597Z,58.40
2019-03-20T06:07:21.790Z,58.59
2019-03-20T06:10:11.837Z,58.81
2019-03-20T06:12:59.215Z,58.77
2019-03-20T06:15:46.704Z,59.97
2019-03-20T06:18:34.428Z,60.16
2019-03-20T06:21:22.160Z,60.28
2019-03-20T06:24:10.709Z,62.27
2019-03-20T06:26:57.848Z,62.06
2019-03-20T06:29:45.696Z,61.59
2019-03-20T06:32:33.291Z,61.29
2019-03-20T06:35:21.125Z,61.39
2019-03-20T06:38:08.447Z,61.27
2019-03-20T06:40:55.664Z,61.42
2019-03-20T06:43:42.884Z,61.39
2019-03-20T06:46:30.614Z,61.38
2019-03-20T06:49:18.040Z,61.17
2019-03-20T06:52:05.566Z,60.92
2019-03-20T06:54:53.195Z,60.55
2019-03-20T06:57:41.029Z,60.09
2019-03-20T07:00:37.176Z,59.73
2019-03-20T07:03:34.103Z,59.31
2019-03-20T07:06:43.235Z,58.67
2019-03-20T07:09:39.668Z,58.26
2019-03-20T07:12:26.889Z,57.65
2019-03-20T07:15:14.823Z,57.49
2019-03-20T07:18:02.248Z,57.18
2019-03-20T07:20:49.878Z,56.56
2019-03-20T07:23:37.508Z,55.96
2019-03-20T07:26:25.032Z,55.03
2019-03-20T07:29:12.253Z,55.35
2019-03-20T07:31:59.677Z,54.60
2019-03-20T07:34:47.100Z,54.57
2019-03-20T07:37:34.838Z,54.31
2019-03-20T07:40:22.160Z,53.88
2019-03-20T07:43:09.481Z,52.75
2019-03-20T07:45:57.314Z,52.61
2019-03-20T07:48:45.145Z,51.96
2019-03-20T07:51:32.604Z,49.83
2019-03-20T07:54:19.990Z,50.34
2019-03-20T07:57:07.778Z,49.67
2019-03-20T07:59:55.554Z,50.01
2019-03-20T08:02:43.443Z,49.96
2019-03-20T08:05:30.915Z,50.00
2019-03-20T08:08:18.447Z,48.87
2019-03-20T08:11:06.618Z,49.48
2019-03-20T08:13:54.312Z,48.97
2019-03-20T08:16:41.770Z,48.29
2019-03-20T08:19:29.472Z,48.47
2019-03-20T08:22:19.114Z,48.13
2019-03-20T08:25:08.019Z,46.75
2019-03-20T08:27:55.530Z,45.51
2019-03-20T08:30:43.159Z,46.35
2019-03-20T08:33:30.788Z,46.57
2019-03-20T08:36:18.622Z,46.49
2019-03-20T08:39:07.383Z,44.49
2019-03-20T08:41:55.212Z,45.48
2019-03-20T08:44:42.499Z,44.76
2019-03-20T08:47:30.159Z,44.87
2019-03-20T08:50:21.786Z,44.00
2019-03-20T08:53:09.106Z,43.46
2019-03-20T08:55:56.630Z,42.48
2019-03-20T08:58:44.054Z,43.61
2019-03-20T09:01:31.377Z,42.13
2019-03-20T09:04:19.011Z,42.80
2019-03-20T09:07:09.298Z,41.36
2019-03-20T09:09:57.136Z,41.52
2019-03-20T09:12:44.871Z,41.80
2019-03-20T09:15:31.979Z,40.80
2019-03-20T09:18:20.325Z,40.01
2019-03-20T09:21:07.751Z,40.53
2019-03-20T09:23:54.763Z,40.22
2019-03-20T09:26:42.085Z,39.95
2019-03-20T09:29:36.131Z,39.31
2019-03-20T09:32:18.878Z,38.98
2019-03-20T09:35:07.206Z,38.74
2019-03-20T09:37:55.264Z,37.89
2019-03-20T09:40:42.687Z,37.63
2019-03-20T09:43:30.214Z,37.59
2019-03-20T09:46:17.639Z,38.13
2019-03-20T09:49:05.575Z,37.31
2019-03-20T09:51:53.202Z,36.08
2019-03-20T09:54:40.317Z,35.19
2019-03-20T09:57:27.952Z,34.91
2019-03-20T10:00:21.004Z,34.91
2019-03-20T10:03:08.630Z,35.05
2019-03-20T10:05:56.567Z,33.96
2019-03-20T10:08:53.771Z,35.03
2019-03-20T10:11:33.261Z,34.86
2019-03-20T10:14:20.889Z,34.19
2019-03-20T10:17:08.211Z,34.92
2019-03-20T10:19:55.635Z,33.47
2019-03-20T10:22:43.266Z,33.72
2019-03-20T10:25:31.018Z,33.09
2019-03-20T10:28:18.522Z,33.72
2019-03-20T10:31:06.046Z,33.15
2019-03-20T10:33:53.275Z,32.74
2019-03-20T10:36:40.385Z,33.24
2019-03-20T10:39:27.807Z,33.33
2019-03-20T10:42:15.440Z,33.05
2019-03-20T10:45:03.070Z,32.68
2019-03-20T10:47:53.038Z,32.93
2019-03-20T10:50:40.179Z,32.74
2019-03-20T10:53:27.913Z,32.37
2019-03-20T10:56:15.225Z,32.95
2019-03-20T10:59:02.747Z,31.78
2019-03-20T11:01:50.072Z,32.16
2019-03-20T11:04:37.696Z,32.58
2019-03-20T11:07:25.223Z,32.26
2019-03-20T11:10:29.139Z,31.78
2019-03-20T11:13:16.662Z,31.84
2019-03-20T11:16:05.024Z,32.48
2019-03-20T11:18:52.127Z,33.26
2019-03-20T11:21:39.971Z,32.16
2019-03-20T11:24:27.910Z,31.31
2019-03-20T11:27:15.692Z,31.97
2019-03-20T11:30:03.256Z,31.75
2019-03-20T11:32:50.604Z,31.48
2019-03-20T11:35:38.217Z,32.54
2019-03-20T11:38:26.046Z,32.44
2019-03-20T11:41:13.465Z,31.79
2019-03-20T11:44:00.893Z,31.87
2019-03-20T11:46:48.633Z,30.65
2019-03-20T11:49:36.352Z,31.40
2019-03-20T11:52:23.775Z,31.12
2019-03-20T11:55:11.407Z,30.87
2019-03-20T11:57:59.049Z,30.93
2019-03-20T12:00:46.271Z,31.49
2019-03-20T12:03:33.791Z,30.52
2019-03-20T12:06:21.319Z,29.99
2019-03-20T12:09:09.753Z,30.74
2019-03-20T12:11:56.975Z,29.05
2019-03-20T12:14:44.918Z,29.16
2019-03-20T12:17:32.449Z,29.00
2019-03-20T12:20:24.276Z,30.10
2019-03-20T12:23:11.728Z,30.88
2019-03-20T12:25:59.126Z,28.94
2019-03-20T12:28:46.637Z,29.72
2019-03-20T12:31:34.472Z,29.66
2019-03-20T12:34:22.205Z,29.02
2019-03-20T12:37:11.026Z,29.54
2019-03-20T12:39:58.280Z,29.73
2019-03-20T12:42:46.127Z,30.29
2019-03-20T12:45:38.302Z,29.22
2019-03-20T12:48:25.981Z,28.79
2019-03-20T12:51:13.405Z,28.69
2019-03-20T12:54:00.931Z,29.17
2019-03-20T12:56:49.378Z,28.85
2019-03-20T12:59:37.113Z,28.86
2019-03-20T13:02:24.535Z,29.04
2019-03-20T13:05:14.727Z,28.21
2019-03-20T13:08:05.958Z,27.23
2019-03-20T13:10:51.311Z,27.61
2019-03-20T13:13:38.433Z,27.81
2019-03-20T13:16:25.956Z,27.56
2019-03-20T13:19:13.793Z,28.89
2019-03-20T13:22:01.560Z,28.76
2019-03-20T13:24:49.151Z,28.23
2019-03-20T13:27:37.906Z,28.40
2019-03-20T13:30:43.971Z,28.64
2019-03-20T13:33:32.003Z,28.80
2019-03-20T13:36:19.428Z,28.91
2019-03-20T13:39:07.468Z,28.54
2019-03-20T13:41:54.993Z,28.83
2019-03-20T13:44:42.623Z,28.47
2019-03-20T13:47:29.944Z,28.75
2019-03-20T13:50:17.983Z,29.35
2019-03-20T13:53:06.002Z,28.44
2019-03-20T13:55:53.241Z,28.08
2019-03-20T13:58:40.869Z,28.29
2019-03-20T14:01:28.502Z,28.48
2019-03-20T14:04:16.130Z,29.19
2019-03-20T14:07:03.552Z,28.89
2019-03-20T14:09:51.079Z,28.28
2019-03-20T14:12:38.508Z,27.80
2019-03-20T14:15:26.341Z,29.43
2019-03-20T14:18:13.661Z,30.24
2019-03-20T14:21:01.095Z,29.68
2019-03-20T14:23:49.634Z,29.42
2019-03-20T14:26:37.056Z,29.58
2019-03-20T14:29:24.483Z,29.72
2019-03-20T14:32:11.905Z,29.88
2019-03-20T14:34:59.537Z,29.38
2019-03-20T14:37:47.267Z,30.38
2019-03-20T14:40:36.844Z,30.15
2019-03-20T14:43:24.577Z,30.17
2019-03-20T14:46:11.894Z,29.58
2019-03-20T14:48:59.635Z,29.29
2019-03-20T14:51:47.255Z,28.99
2019-03-20T14:54:34.783Z,28.69
2019-03-20T14:57:22.617Z,29.07
2019-03-20T15:00:13.112Z,28.77
2019-03-20T15:03:00.946Z,27.92
2019-03-20T15:05:48.574Z,28.04
2019-03-20T15:08:36.210Z,29.34
2019-03-20T15:11:23.630Z,28.91
2019-03-20T15:14:11.465Z,29.58
2019-03-20T15:16:59.021Z,29.51
2019-03-20T15:19:46.843Z,29.23
2019-03-20T15:22:34.564Z,30.25
2019-03-20T15:25:22.492Z,29.53
2019-03-20T15:28:09.723Z,29.96
2019-03-20T15:30:57.338Z,28.77
2019-03-20T15:33:45.076Z,29.60
2019-03-20T15:36:32.800Z,29.11
2019-03-20T15:39:20.433Z,29.57
2019-03-20T15:42:07.855Z,29.83
2019-03-20T15:44:55.587Z,30.84
2019-03-20T15:47:43.522Z,30.79
2019-03-20T15:50:31.255Z,30.06
2019-03-20T15:53:18.782Z,31.06
2019-03-20T15:56:06.111Z,31.57
2019-03-20T15:58:53.533Z,31.71
2019-03-20T16:01:40.951Z,30.97
2019-03-20T16:04:28.171Z,31.26
2019-03-20T16:07:15.800Z,31.89
2019-03-20T16:10:08.291Z,31.82
2019-03-20T16:12:55.979Z,31.91
2019-03-20T16:15:43.638Z,31.50
2019-03-20T16:18:31.128Z,31.72
2019-03-20T16:21:18.665Z,32.18
2019-03-20T16:24:06.217Z,32.64
2019-03-20T16:26:55.367Z,32.29
2019-03-20T16:29:42.980Z,32.47
2019-03-20T16:32:30.713Z,32.13
2019-03-20T16:35:18.442Z,31.86
2019-03-20T16:38:07.177Z,32.37
2019-03-20T16:40:54.517Z,32.97
2019-03-20T16:43:42.042Z,32.72
2019-03-20T16:46:29.676Z,32.72
2019-03-20T16:49:16.995Z,33.18
2019-03-20T16:52:04.316Z,33.37
2019-03-20T16:54:51.435Z,33.64
2019-03-20T16:57:38.965Z,33.66
2019-03-20T17:00:30.687Z,33.81
2019-03-20T17:03:18.111Z,34.02
2019-03-20T17:06:05.334Z,34.02
2019-03-20T17:08:53.163Z,34.59
2019-03-20T17:11:40.383Z,34.59
2019-03-20T17:14:28.021Z,35.22
2019-03-20T17:17:15.458Z,35.69
2019-03-20T17:20:02.531Z,36.39
2019-03-20T17:22:50.090Z,36.55
2019-03-20T17:25:37.972Z,37.18
2019-03-20T17:28:25.644Z,37.84
2019-03-20T17:31:13.074Z,38.21
2019-03-20T17:34:00.906Z,38.77
2019-03-20T17:36:48.340Z,39.33
2019-03-20T17:39:36.475Z,39.88
2019-03-20T17:42:24.098Z,40.09
2019-03-20T17:45:14.496Z,40.47
2019-03-20T17:48:02.687Z,40.96
2019-03-20T17:50:50.581Z,41.30
2019-03-20T17:53:38.009Z,41.70
2019-03-20T17:56:25.420Z,42.10
2019-03-20T17:59:15.348Z,42.22
2019-03-20T18:02:02.519Z,42.81
2019-03-20T18:04:52.512Z,42.84
2019-03-20T18:07:39.926Z,43.13
2019-03-20T18:10:27.152Z,43.30
2019-03-20T18:13:14.878Z,43.38
2019-03-20T18:16:02.230Z,43.66
2019-03-20T18:18:49.629Z,43.67
2019-03-20T18:21:37.049Z,43.63
2019-03-20T18:24:24.474Z,43.92
2019-03-20T18:27:12.001Z,43.92
2019-03-20T18:29:59.530Z,44.57
2019-03-20T18:32:47.276Z,44.72
2019-03-20T18:35:34.894Z,44.81
2019-03-20T18:38:22.316Z,44.98
2019-03-20T18:41:10.250Z,45.13
2019-03-20T18:43:58.292Z,45.23
2019-03-20T18:46:45.932Z,45.20
2019-03-20T18:49:33.649Z,45.43
2019-03-20T18:52:21.379Z,44.95
2019-03-20T18:55:11.688Z,44.86
2019-03-20T18:57:58.992Z,46.82
2019-03-20T19:00:46.522Z,47.93
2019-03-20T19:03:40.292Z,47.46
2019-03-20T19:06:30.313Z,47.00
2019-03-20T19:09:17.600Z,47.18
2019-03-20T19:12:08.845Z,47.26
2019-03-20T19:14:54.595Z,47.36
2019-03-20T19:17:42.231Z,47.27
2019-03-20T19:20:29.861Z,47.75
2019-03-20T19:23:17.280Z,47.83
2019-03-20T19:26:05.010Z,47.70
2019-03-20T19:28:52.650Z,47.67
2019-03-20T19:31:40.269Z,47.65
2019-03-20T19:34:28.412Z,49.55
2019-03-20T19:37:15.942Z,50.42
2019-03-20T19:40:04.080Z,49.36
2019-03-20T19:42:51.627Z,48.95
2019-03-20T19:45:38.828Z,48.97
2019-03-20T19:48:26.458Z,48.96
2019-03-20T19:51:13.995Z,48.35
2019-03-20T19:54:01.684Z,47.93
2019-03-20T19:56:48.930Z,47.44
2019-03-20T19:59:36.570Z,47.06
2019-03-20T20:02:23.983Z,46.62
2019-03-20T20:05:16.110Z,46.63
2019-03-20T20:08:01.090Z,49.19
2019-03-20T20:10:48.611Z,50.10
2019-03-20T20:13:36.141Z,50.00
2019-03-20T20:16:24.486Z,49.18
2019-03-20T20:19:12.427Z,48.69
2019-03-20T20:22:00.253Z,48.47
2019-03-20T20:24:47.780Z,48.43
2019-03-20T20:27:35.512Z,48.49
2019-03-20T20:30:24.372Z,48.16
2019-03-20T20:33:11.930Z,47.95
2019-03-20T20:35:59.423Z,47.79
2019-03-20T20:38:46.747Z,47.88
2019-03-20T20:41:34.271Z,47.86
2019-03-20T20:44:21.491Z,48.05
2019-03-20T20:47:09.326Z,47.91
2019-03-20T20:49:57.161Z,47.71
2019-03-20T20:52:44.792Z,47.46
2019-03-20T20:55:32.313Z,47.80
2019-03-20T20:58:19.841Z,48.05
2019-03-20T21:01:07.111Z,49.70
2019-03-20T21:03:54.996Z,50.17
2019-03-20T21:06:42.623Z,50.18
2019-03-20T21:09:30.358Z,51.28
2019-03-20T21:12:17.985Z,50.71
2019-03-20T21:15:07.029Z,50.19
2019-03-20T21:18:15.568Z,50.06
2019-03-20T21:21:03.202Z,50.69
2019-03-20T21:24:25.539Z,50.89
2019-03-20T21:27:36.109Z,50.86
2019-03-20T21:30:35.922Z,50.89
2019-03-20T21:33:44.541Z,51.43
2019-03-20T21:36:52.648Z,51.50
2019-03-20T21:39:39.871Z,51.70
2019-03-20T21:42:33.335Z,53.33
2019-03-20T21:45:55.176Z,53.51
2019-03-20T21:48:42.694Z,53.59
2019-03-20T21:51:31.862Z,53.17
2019-03-20T21:54:40.792Z,52.48
2019-03-20T21:57:34.810Z,52.35
2019-03-20T22:00:28.233Z,51.77
2019-03-20T22:03:15.754Z,51.66
2019-03-20T22:06:09.223Z,51.72
2019-03-20T22:08:56.951Z,51.81
2019-03-20T22:12:13.460Z,52.06
2019-03-20T22:15:03.960Z,54.01
2019-03-20T22:18:21.797Z,54.55
2019-03-20T22:21:47.413Z,54.35
2019-03-20T22:25:00.537Z,53.50
2019-03-20T22:28:07.622Z,53.61
2019-03-20T22:30:54.739Z,53.96
2019-03-20T22:34:18.929Z,53.84
2019-03-20T22:37:06.452Z,53.81
2019-03-20T22:40:16.715Z,53.76
2019-03-20T22:43:10.097Z,53.43
2019-03-20T22:46:32.422Z,53.54
2019-03-20T22:49:34.792Z,53.60
2019-03-20T22:52:31.537Z,53.51
2019-03-20T22:55:43.191Z,53.59
2019-03-20T22:58:44.683Z,53.35
2019-03-20T23:01:41.226Z,53.14
2019-03-20T23:04:34.625Z,53.47
2019-03-20T23:07:21.904Z,53.17
2019-03-20T23:10:15.444Z,52.98
2019-03-20T23:13:03.105Z,53.15
2019-03-20T23:15:51.375Z,52.88
2019-03-20T23:18:39.381Z,52.74
2019-03-20T23:21:26.910Z,52.91
2019-03-20T23:24:14.743Z,53.11
2019-03-20T23:27:05.553Z,53.36
2019-03-20T23:29:52.866Z,53.63
2019-03-20T23:32:40.397Z,53.76
2019-03-20T23:35:27.922Z,53.69
2019-03-20T23:38:15.071Z,53.33
2019-03-20T23:41:02.444Z,54.10
2019-03-20T23:43:53.104Z,54.75
2019-03-20T23:46:38.844Z,52.83
2019-03-20T23:49:26.790Z,52.80
2019-03-20T23:52:14.311Z,52.95
2019-03-20T23:55:01.632Z,52.82
2019-03-20T23:57:48.955Z,53.28
